Time;durP1;ratioP1;P1;durP2;ratioP2;P2;SDS_P1;SDS_P2;PMS_P1;PMS_P2;Temp;Humidity;BMP_temperature;BMP_pressure;BME280_temperature;BME280_humidity;BME280_pressure;Samples;Min_cycle;Max_cycle;Signal;HPM_P1;HPM_P2
2021/03/24 00:01:43;;;;;;;6.30;3.85;;;;;;;-1.20;56.85;99292.67;1773868;79;21476;-55
2021/03/24 00:04:11;;;;;;;6.12;4.28;;;;;;;-1.25;57.01;99294.26;1773865;79;21124;-55
2021/03/24 00:06:39;;;;;;;6.65;4.15;;;;;;;-1.29;57.08;99296.25;1776095;79;21344;-55
2021/03/24 00:09:08;;;;;;;6.67;3.80;;;;;;;-1.29;57.17;99300.17;1800798;78;21019;-55
2021/03/24 00:11:37;;;;;;;4.58;3.60;;;;;;;-1.29;57.32;99298.02;1781387;78;21562;-55
2021/03/24 00:14:06;;;;;;;7.00;4.10;;;;;;;-1.32;57.35;99292.53;1773055;79;21124;-54
2021/03/24 00:16:34;;;;;;;7.87;3.85;;;;;;;-1.34;57.40;99291.80;1753631;79;21108;-55
2021/03/24 00:19:02;;;;;;;5.72;4.10;;;;;;;-1.34;57.56;99296.19;1768147;79;21200;-55
2021/03/24 00:21:30;;;;;;;7.78;4.15;;;;;;;-1.34;57.73;99294.88;1767003;79;20961;-55
2021/03/24 00:23:57;;;;;;;6.00;3.50;;;;;;;-1.37;57.88;99292.00;1756463;79;21110;-54
2021/03/24 00:26:25;;;;;;;6.30;3.83;;;;;;;-1.40;57.88;99300.48;1770690;79;21104;-55
2021/03/24 00:28:53;;;;;;;7.62;3.65;;;;;;;-1.43;57.97;99300.68;1762317;79;21041;-55
2021/03/24 00:31:23;;;;;;;6.10;4.08;;;;;;;-1.44;57.88;99301.64;1747148;79;21356;-56
2021/03/24 00:33:51;;;;;;;6.05;3.90;;;;;;;-1.44;57.97;99301.64;1747063;79;21195;-55
2021/03/24 00:36:18;;;;;;;7.05;3.58;;;;;;;-1.50;58.26;99301.56;1749583;79;21087;-55
2021/03/24 00:38:46;;;;;;;6.67;4.05;;;;;;;-1.58;58.35;99299.91;1781320;79;20937;-55
2021/03/24 00:41:13;;;;;;;5.53;3.35;;;;;;;-1.63;58.56;99304.59;1775331;79;20911;-55
2021/03/24 00:43:41;;;;;;;4.78;3.55;;;;;;;-1.71;58.65;99305.55;1766210;78;21358;-54
2021/03/24 00:46:09;;;;;;;8.88;4.08;;;;;;;-1.77;58.89;99310.33;1781034;79;21036;-55
2021/03/24 00:48:36;;;;;;;6.80;3.83;;;;;;;-1.83;59.13;99314.63;1756456;79;21176;-55
2021/03/24 00:51:08;;;;;;;8.33;3.45;;;;;;;-1.85;59.24;99319.91;1769257;79;21021;-55
2021/03/24 00:53:35;;;;;;;6.15;3.65;;;;;;;-1.89;59.33;99311.93;1760194;78;21134;-55
2021/03/24 00:56:04;;;;;;;5.42;3.65;;;;;;;-1.89;59.32;99317.98;1776512;79;21454;-54
2021/03/24 00:58:32;;;;;;;5.70;3.55;;;;;;;-1.89;59.36;99319.29;1752190;79;21175;-55
2021/03/24 01:00:59;;;;;;;6.45;3.92;;;;;;;-1.92;59.26;99323.39;1769900;78;21155;-55
2021/03/24 01:03:26;;;;;;;6.60;3.77;;;;;;;-1.96;59.39;99317.16;1780944;79;21103;-55
2021/03/24 01:05:54;;;;;;;6.12;3.98;;;;;;;-1.98;59.62;99320.31;1769584;79;21091;-55
2021/03/24 01:08:24;;;;;;;5.78;3.62;;;;;;;-2.02;59.58;99313.63;1757724;78;21153;-55
2021/03/24 01:10:53;;;;;;;8.33;4.05;;;;;;;-2.04;59.71;99319.41;1759555;78;21134;-55
2021/03/24 01:13:21;;;;;;;5.83;3.42;;;;;;;-2.05;59.77;99320.33;1780896;79;21562;-55
2021/03/24 01:15:48;;;;;;;6.53;3.92;;;;;;;-2.07;59.89;99326.11;1775407;79;21158;-55
2021/03/24 01:18:17;;;;;;;5.95;3.85;;;;;;;-2.11;60.10;99325.95;1800726;79;21123;-55
2021/03/24 01:20:45;;;;;;;7.17;3.77;;;;;;;-2.14;60.18;99330.85;1792197;78;21339;-55
2021/03/24 01:23:14;;;;;;;6.20;3.35;;;;;;;-2.15;60.23;99328.35;1792687;79;20923;-55
2021/03/24 01:25:41;;;;;;;7.87;4.65;;;;;;;-2.17;60.23;99330.22;1799105;78;21005;-55
2021/03/24 01:28:19;;;;;;;5.67;3.47;;;;;;;-2.20;60.47;99336.47;1773740;79;21175;-55
2021/03/24 01:30:47;;;;;;;6.35;3.85;;;;;;;-2.23;60.56;99339.71;1771340;79;21135;-55
2021/03/24 01:33:16;;;;;;;8.78;4.10;;;;;;;-2.25;60.47;99340.28;1790667;79;20875;-56
2021/03/24 01:35:44;;;;;;;6.37;4.28;;;;;;;-2.28;60.62;99344.38;1801006;78;21096;-55
2021/03/24 01:38:12;;;;;;;7.37;3.87;;;;;;;-2.30;60.63;99339.72;1773775;79;21114;-55
2021/03/24 01:40:46;;;;;;;7.83;5.00;;;;;;;-2.32;60.70;99343.70;1776006;79;20997;-55
2021/03/24 01:43:31;;;;;;;5.60;4.30;;;;;;;-2.34;60.71;99349.48;1785336;78;21079;-54
2021/03/24 01:46:22;;;;;;;6.17;3.52;;;;;;;-2.34;60.81;99345.58;1782037;79;22225;-55
2021/03/24 01:49:04;;;;;;;7.67;4.65;;;;;;;-2.34;60.97;99344.73;1785811;79;21586;-56
2021/03/24 01:51:45;;;;;;;7.60;4.17;;;;;;;-2.34;61.13;99356.45;1711922;81;20992;-55
2021/03/24 01:54:22;;;;;;;6.60;4.35;;;;;;;-2.37;60.89;99351.45;1788569;79;21001;-55
2021/03/24 01:56:55;;;;;;;8.45;4.78;;;;;;;-2.38;61.19;99350.61;1775967;79;21116;-54
2021/03/24 01:59:23;;;;;;;7.70;4.80;;;;;;;-2.39;61.13;99354.14;1790258;79;21319;-55
2021/03/24 02:01:54;;;;;;;7.20;4.42;;;;;;;-2.39;61.12;99360.65;1801089;78;21181;-55
2021/03/24 02:04:23;;;;;;;8.55;4.40;;;;;;;-2.42;61.08;99352.20;1788537;79;21025;-56
2021/03/24 02:07:13;;;;;;;6.20;4.30;;;;;;;-2.46;61.02;99350.69;1796600;79;21145;-56
2021/03/24 02:10:03;;;;;;;7.90;4.70;;;;;;;-2.50;61.41;99358.69;1801430;79;21009;-55
2021/03/24 02:12:38;;;;;;;5.62;3.95;;;;;;;-2.50;61.41;99358.69;1758827;79;21452;-55
2021/03/24 02:15:12;;;;;;;8.15;4.62;;;;;;;-2.51;61.31;99359.64;1776583;79;21131;-56
2021/03/24 02:17:43;;;;;;;6.60;4.05;;;;;;;-2.55;61.14;99359.43;1765843;79;21594;-54
2021/03/24 02:20:34;;;;;;;7.47;4.40;;;;;;;-2.57;61.43;99361.75;1767064;78;21133;-54
2021/03/24 02:23:16;;;;;;;9.85;4.55;;;;;;;-2.58;61.47;99363.52;1745873;79;21101;-54
2021/03/24 02:25:54;;;;;;;6.83;4.47;;;;;;;-2.60;61.47;99368.44;1761599;79;21211;-54
2021/03/24 02:28:22;;;;;;;6.90;4.75;;;;;;;-2.64;61.49;99371.71;1763483;79;21128;-55
2021/03/24 02:30:50;;;;;;;9.05;5.12;;;;;;;-2.66;61.45;99376.15;1770003;79;21009;-54
2021/03/24 02:33:24;;;;;;;9.83;5.10;;;;;;;-2.65;61.42;99376.53;1780247;78;20990;-56
2021/03/24 02:35:58;;;;;;;8.40;4.72;;;;;;;-2.65;61.65;99375.23;1768891;79;21132;-56
2021/03/24 02:38:26;;;;;;;7.08;4.72;;;;;;;-2.63;61.69;99385.09;1783053;79;21371;-55
2021/03/24 02:40:53;;;;;;;8.85;4.40;;;;;;;-2.63;61.64;99383.78;1788425;78;20990;-55
2021/03/24 02:43:21;;;;;;;11.10;5.05;;;;;;;-2.64;61.62;99376.92;1783591;79;20993;-56
2021/03/24 02:45:48;;;;;;;9.93;4.45;;;;;;;-2.66;61.62;99374.03;1771914;78;21109;-55
2021/03/24 02:48:21;;;;;;;11.93;4.97;;;;;;;-2.69;61.56;99375.05;1781328;79;20938;-56
2021/03/24 02:50:52;;;;;;;12.60;6.17;;;;;;;-2.72;61.66;99370.02;1774927;79;22466;-55
2021/03/24 02:53:19;;;;;;;8.33;5.47;;;;;;;-2.73;61.68;99376.59;1776160;79;21024;-55
2021/03/24 02:55:47;;;;;;;8.53;5.10;;;;;;;-2.76;61.74;99376.31;1784335;79;20938;-55
2021/03/24 02:58:15;;;;;;;13.75;4.97;;;;;;;-2.77;61.84;99378.56;1768812;79;21006;-55
2021/03/24 03:00:42;;;;;;;9.28;5.28;;;;;;;-2.83;61.92;99380.22;1780629;79;21088;-55
2021/03/24 03:03:19;;;;;;;8.23;4.47;;;;;;;-2.83;62.29;99381.97;1780528;78;21383;-55
2021/03/24 03:05:47;;;;;;;8.85;4.12;;;;;;;-2.87;62.41;99383.94;1782468;78;20986;-55
2021/03/24 03:08:22;;;;;;;6.00;4.10;;;;;;;-2.88;62.54;99385.31;1760892;79;21072;-56
2021/03/24 03:11:14;;;;;;;5.97;3.92;;;;;;;-2.91;62.70;99385.02;1777326;80;21566;-55
2021/03/24 03:14:03;;;;;;;5.62;3.83;;;;;;;-2.94;62.75;99386.50;1766909;78;21151;-55
2021/03/24 03:16:40;;;;;;;8.20;4.47;;;;;;;-2.96;62.85;99388.36;1777506;80;21845;-56
2021/03/24 03:19:20;;;;;;;10.93;5.03;;;;;;;-2.97;62.95;99389.27;1795162;79;21229;-55
2021/03/24 03:22:05;;;;;;;6.87;4.83;;;;;;;-2.97;63.03;99391.87;1794545;78;20955;-56
2021/03/24 03:24:38;;;;;;;10.95;5.00;;;;;;;-2.98;63.03;99387.61;1795091;79;21058;-56
2021/03/24 03:27:08;;;;;;;9.15;5.00;;;;;;;-2.94;63.02;99390.41;1757381;79;20993;-56
2021/03/24 03:29:36;;;;;;;14.18;5.80;;;;;;;-2.92;62.77;99391.14;1755019;79;21331;-56
2021/03/24 03:32:05;;;;;;;16.27;5.72;;;;;;;-2.89;62.68;99401.39;1786209;79;21150;-56
2021/03/24 03:34:33;;;;;;;15.80;5.72;;;;;;;-2.90;62.66;99399.73;1779250;79;21183;-56
2021/03/24 03:37:01;;;;;;;9.08;5.50;;;;;;;-2.92;62.68;99404.16;1759616;79;21097;-55
2021/03/24 03:39:29;;;;;;;8.73;5.22;;;;;;;-2.95;62.74;99407.42;1765754;79;21133;-56
2021/03/24 03:42:00;;;;;;;9.68;5.85;;;;;;;-2.94;62.92;99408.63;1765613;79;21084;-56
2021/03/24 03:44:29;;;;;;;9.00;5.45;;;;;;;-2.96;62.88;99407.03;1783406;79;21575;-55
2021/03/24 03:47:02;;;;;;;8.03;5.20;;;;;;;-2.99;62.91;99406.75;1747231;79;21654;-55
2021/03/24 03:49:29;;;;;;;9.05;5.92;;;;;;;-2.99;62.86;99406.75;1781163;79;21143;-56
2021/03/24 03:52:22;;;;;;;11.70;5.97;;;;;;;-2.99;62.91;99411.95;1765723;79;21109;-56
2021/03/24 03:55:26;;;;;;;15.28;6.03;;;;;;;-3.00;62.80;99414.66;1769331;79;21314;-56
2021/03/24 03:57:59;;;;;;;18.20;8.38;;;;;;;-3.00;62.80;99414.66;1763766;79;20938;-55
2021/03/24 04:00:39;;;;;;;16.37;7.65;;;;;;;-3.03;62.68;99420.88;1765440;79;20962;-54
2021/03/24 04:03:15;;;;;;;17.00;7.40;;;;;;;-3.03;62.78;99425.23;1784175;78;21531;-56
2021/03/24 04:05:53;;;;;;;12.28;6.53;;;;;;;-3.02;62.80;99426.44;1760060;79;21591;-56
2021/03/24 04:08:23;;;;;;;13.83;7.30;;;;;;;-3.03;62.84;99427.84;1776744;79;21340;-55
2021/03/24 04:10:58;;;;;;;13.10;6.78;;;;;;;-3.08;62.91;99428.11;1775644;79;21029;-56
2021/03/24 04:13:27;;;;;;;13.62;7.67;;;;;;;-3.11;63.01;99430.88;1780580;79;20919;-56
2021/03/24 04:15:59;;;;;;;15.05;6.22;;;;;;;-3.09;63.12;99433.38;1746964;79;21064;-56
2021/03/24 04:18:42;;;;;;;11.05;6.78;;;;;;;-3.03;63.25;99435.20;1747237;79;21060;-55
2021/03/24 04:21:11;;;;;;;10.45;6.62;;;;;;;-2.91;63.43;99434.48;1748339;79;21265;-55
2021/03/24 04:23:44;;;;;;;12.28;6.58;;;;;;;-2.80;63.63;99436.48;1783602;79;21029;-55
2021/03/24 04:26:16;;;;;;;10.40;6.45;;;;;;;-2.65;63.78;99442.95;1767117;79;21106;-55
2021/03/24 04:28:47;;;;;;;8.95;5.00;;;;;;;-2.45;63.63;99439.16;1761424;79;21127;-55
2021/03/24 04:31:15;;;;;;;14.80;5.33;;;;;;;-2.18;62.99;99447.13;1776406;79;21100;-55
2021/03/24 04:33:43;;;;;;;8.18;5.03;;;;;;;-1.91;62.71;99451.54;1739913;79;21367;-55
2021/03/24 04:36:16;;;;;;;8.40;5.25;;;;;;;-1.60;62.35;99445.73;1740628;79;20994;-55
2021/03/24 04:38:47;;;;;;;8.25;5.03;;;;;;;-1.28;61.66;99447.17;1763340;79;22290;-55
2021/03/24 04:41:20;;;;;;;7.72;5.33;;;;;;;-0.92;61.03;99442.67;1775122;79;21154;-55
2021/03/24 04:43:51;;;;;;;6.50;3.77;;;;;;;-0.52;60.40;99452.17;1791185;79;21533;-55
2021/03/24 04:46:25;;;;;;;6.17;4.12;;;;;;;-0.09;59.32;99448.84;1766437;79;21389;-55
2021/03/24 04:49:04;;;;;;;7.87;4.45;;;;;;;0.32;57.13;99445.98;1767107;79;21104;-55
2021/03/24 04:51:34;;;;;;;8.68;5.20;;;;;;;0.67;56.54;99450.89;1779754;79;21692;-57
2021/03/24 04:54:19;;;;;;;7.80;5.20;;;;;;;1.02;54.50;99450.50;1795947;78;21106;-56
2021/03/24 04:56:50;;;;;;;7.58;4.28;;;;;;;1.27;54.39;99454.80;1761278;78;21149;-55
2021/03/24 04:59:22;;;;;;;8.28;4.87;;;;;;;1.60;53.45;99460.64;1768771;79;21406;-55
2021/03/24 05:01:53;;;;;;;4.15;3.47;;;;;;;1.95;52.26;99456.22;1765546;79;21132;-56
2021/03/24 05:04:38;;;;;;;4.85;3.90;;;;;;;2.27;51.52;99465.06;1769588;79;21010;-57
2021/03/24 05:07:11;;;;;;;8.93;4.17;;;;;;;2.54;50.85;99466.02;1782679;78;21099;-58
2021/03/24 05:09:45;;;;;;;5.47;4.17;;;;;;;2.84;50.48;99462.28;1758894;79;21105;-56
2021/03/24 05:12:21;;;;;;;6.37;3.85;;;;;;;3.22;49.67;99463.16;1765844;78;21379;-56
2021/03/24 05:15:00;;;;;;;8.55;4.40;;;;;;;3.52;48.61;99467.22;1784552;79;21069;-56
2021/03/24 05:17:42;;;;;;;3.75;3.30;;;;;;;3.71;47.67;99462.12;1791187;78;22064;-56
2021/03/24 05:20:21;;;;;;;6.17;3.72;;;;;;;3.80;47.43;99464.47;1768694;80;21049;-56
2021/03/24 05:22:49;;;;;;;5.60;3.60;;;;;;;4.01;46.87;99467.10;1732220;80;21384;-56
2021/03/24 05:25:38;;;;;;;6.60;4.75;;;;;;;4.26;46.35;99470.16;1742061;80;21040;-56
2021/03/24 05:28:29;;;;;;;6.42;4.25;;;;;;;4.43;45.41;99475.79;1747577;80;20997;-57
2021/03/24 05:31:09;;;;;;;8.13;4.65;;;;;;;4.45;44.36;99479.95;1747433;80;20938;-56
2021/03/24 05:33:43;;;;;;;6.33;4.65;;;;;;;4.43;44.77;99488.48;1749798;80;21012;-57
2021/03/24 05:36:32;;;;;;;8.27;5.23;;;;;;;4.56;44.26;99484.30;1747843;80;21518;-57
2021/03/24 05:39:14;;;;;;;6.33;4.25;;;;;;;4.62;43.74;99489.02;1733920;82;21059;-55
2021/03/24 05:42:28;;;;;;;5.90;4.42;;;;;;;4.67;43.76;99490.78;1719026;82;20914;-55
2021/03/24 05:45:46;;;;;;;5.58;4.92;;;;;;;4.75;43.51;99493.11;1717234;82;21032;-56
2021/03/24 05:49:02;;;;;;;6.63;3.93;;;;;;;5.00;43.89;99499.22;1724411;82;21237;-55
2021/03/24 05:51:59;;;;;;;5.33;4.00;;;;;;;5.22;43.44;99506.08;1704422;81;21367;-56
2021/03/24 05:55:00;;;;;;;7.90;3.72;;;;;;;5.47;43.30;99504.27;1711188;82;20996;-56
2021/03/24 05:57:42;;;;;;;4.40;3.80;;;;;;;5.65;42.37;99503.09;1704475;82;21058;-56
2021/03/24 06:00:30;;;;;;;5.40;4.12;;;;;;;5.71;42.17;99506.47;1727033;82;21027;-56
2021/03/24 06:03:44;;;;;;;6.28;4.12;;;;;;;6.01;42.29;99505.05;1709801;82;21044;-56
2021/03/24 06:06:27;;;;;;;8.05;4.78;;;;;;;6.25;41.23;99507.23;1706087;81;21435;-56
2021/03/24 06:09:31;;;;;;;7.05;4.40;;;;;;;6.42;41.05;99509.13;1724087;81;20944;-56
2021/03/24 06:12:22;;;;;;;7.97;4.80;;;;;;;6.67;40.99;99516.93;1696522;82;21149;-56
2021/03/24 06:15:12;;;;;;;5.50;3.80;;;;;;;6.79;40.05;99509.15;1701746;82;21123;-56
2021/03/24 06:18:13;;;;;;;4.00;3.60;;;;;;;6.89;40.44;99509.09;1714721;82;21159;-55
2021/03/24 06:21:02;;;;;;;5.90;4.30;;;;;;;7.04;39.81;99506.34;1706250;82;21384;-56
2021/03/24 06:24:04;;;;;;;9.03;4.85;;;;;;;7.20;39.56;99505.17;1712909;83;21011;-59
2021/03/24 06:27:00;;;;;;;5.17;4.62;;;;;;;7.39;38.62;99499.77;1710082;82;21037;-57
2021/03/24 06:30:02;;;;;;;7.85;4.35;;;;;;;7.49;38.41;99503.19;1760744;80;20981;-56
2021/03/24 06:33:12;;;;;;;9.63;4.87;;;;;;;7.62;38.14;99500.16;1759489;80;21052;-56
2021/03/24 06:35:58;;;;;;;7.65;5.08;;;;;;;7.74;38.40;99504.27;1777391;80;21299;-56
2021/03/24 06:38:31;;;;;;;5.78;4.80;;;;;;;7.87;37.61;99498.90;1766351;80;21087;-57
2021/03/24 06:41:13;;;;;;;5.65;4.72;;;;;;;7.93;36.98;99498.79;1772446;80;21558;-55
2021/03/24 06:44:31;;;;;;;7.85;5.55;;;;;;;7.89;36.73;99498.28;1780192;80;20985;-57
2021/03/24 06:47:03;;;;;;;6.17;4.83;;;;;;;7.81;37.07;99498.70;1727201;80;21158;-57
2021/03/24 06:49:51;;;;;;;5.28;4.78;;;;;;;7.95;36.78;99493.67;1776604;80;21372;-55
2021/03/24 06:52:50;;;;;;;4.97;4.22;;;;;;;8.07;36.79;99492.95;1764914;80;21179;-56
2021/03/24 06:55:46;;;;;;;8.53;4.22;;;;;;;8.34;36.32;99500.78;1750947;80;21040;-55
2021/03/24 06:58:54;;;;;;;3.72;3.42;;;;;;;8.48;35.98;99501.55;1722878;82;21210;-56
2021/03/24 07:01:39;;;;;;;5.35;3.85;;;;;;;8.61;35.75;99501.12;1770958;80;21102;-56
2021/03/24 07:04:47;;;;;;;8.10;3.58;;;;;;;8.69;35.73;99504.66;1766051;80;21136;-55
2021/03/24 07:07:40;;;;;;;6.80;3.40;;;;;;;8.77;35.36;99503.03;1770049;80;21009;-57
2021/03/24 07:10:16;;;;;;;3.90;3.20;;;;;;;8.90;35.22;99500.28;1756813;79;21574;-56
2021/03/24 07:13:08;;;;;;;;;;;;;;;9.01;35.31;99508.46;1766277;79;21586;-56
2021/03/24 07:16:07;;;;;;;4.92;3.10;;;;;;;9.12;34.55;99512.16;1700141;80;20262;-55
2021/03/24 07:18:47;;;;;;;4.65;3.17;;;;;;;9.06;35.03;99512.30;1765717;79;25002;-56
2021/03/24 07:21:41;;;;;;;3.65;2.42;;;;;;;9.12;34.78;99513.49;1736879;80;21180;-56
2021/03/24 07:24:42;;;;;;;5.40;2.90;;;;;;;9.21;34.91;99517.33;1761920;80;21060;-55
2021/03/24 07:27:59;;;;;;;3.72;2.42;;;;;;;9.44;34.42;99516.23;1773362;80;21131;-55
2021/03/24 07:30:41;;;;;;;4.60;2.60;;;;;;;9.51;33.97;99518.59;1760502;80;21717;-55
2021/03/24 07:33:28;;;;;;;3.70;2.10;;;;;;;9.47;33.84;99522.55;1747561;80;21446;-55
2021/03/24 07:36:16;;;;;;;3.12;2.35;;;;;;;9.51;33.42;99526.56;1774267;80;21483;-56
2021/03/24 07:39:13;;;;;;;3.00;2.35;;;;;;;9.57;33.92;99527.22;1760126;80;21198;-57
2021/03/24 07:42:04;;;;;;;4.20;2.70;;;;;;;9.74;33.76;99526.27;1736172;82;21472;-57
2021/03/24 07:44:43;;;;;;;3.62;2.15;;;;;;;9.88;33.18;99524.80;1754881;80;21127;-57
2021/03/24 07:48:07;;;;;;;6.22;2.90;;;;;;;10.05;32.94;99529.12;1769918;80;21455;-59
2021/03/24 07:50:47;;;;;;;7.83;2.42;;;;;;;10.07;33.27;99535.58;1755294;80;21191;-58
2021/03/24 07:53:40;;;;;;;6.22;3.10;;;;;;;10.05;32.99;99530.94;1730522;80;21121;-55
2021/03/24 07:56:22;;;;;;;4.58;3.30;;;;;;;10.10;33.08;99537.92;1758483;80;21139;-56
2021/03/24 07:59:14;;;;;;;4.80;2.17;;;;;;;10.15;32.49;99526.31;1766697;79;21136;-56
2021/03/24 08:02:10;;;;;;;3.70;2.70;;;;;;;10.25;32.69;99537.12;1765446;80;21332;-55
2021/03/24 08:05:21;;;;;;;4.22;2.12;;;;;;;10.47;32.09;99525.81;1764718;80;21147;-55
2021/03/24 08:08:09;;;;;;;7.42;2.50;;;;;;;10.51;31.94;99535.59;1756443;80;21021;-56
2021/03/24 08:10:42;;;;;;;3.90;1.90;;;;;;;10.55;32.03;99538.27;1758788;80;21382;-54
2021/03/24 08:14:08;;;;;;;3.35;2.12;;;;;;;10.69;31.57;99540.22;1758475;80;21128;-55
2021/03/24 08:17:06;;;;;;;2.72;2.08;;;;;;;10.79;31.34;99536.90;1718691;82;21159;-55
2021/03/24 08:19:52;;;;;;;3.37;2.00;;;;;;;10.91;31.04;99538.68;1720039;83;26619;-56
2021/03/24 08:22:35;;;;;;;3.45;2.10;;;;;;;10.85;30.61;99537.53;1762777;80;21033;-55
2021/03/24 08:25:43;;;;;;;2.15;1.72;;;;;;;10.87;30.16;99538.18;1747350;80;21100;-55
2021/03/24 08:28:45;;;;;;;4.30;2.52;;;;;;;10.86;30.56;99534.38;1759094;80;20929;-59
2021/03/24 08:31:44;;;;;;;3.12;2.30;;;;;;;10.79;30.04;99537.39;1765252;79;20949;-58
2021/03/24 08:34:51;;;;;;;5.20;2.60;;;;;;;10.99;30.14;99542.16;1748443;79;21061;-57
2021/03/24 08:37:44;;;;;;;4.03;2.90;;;;;;;11.42;30.07;99537.33;1716164;82;21009;-58
2021/03/24 08:40:44;;;;;;;4.42;2.33;;;;;;;11.66;28.96;99530.52;1728482;82;21651;-58
2021/03/24 08:43:39;;;;;;;3.35;2.37;;;;;;;11.51;29.32;99533.11;1736861;82;21140;-59
2021/03/24 08:46:18;;;;;;;4.10;3.05;;;;;;;11.62;29.17;99527.39;1708822;83;21931;-57
2021/03/24 08:48:55;;;;;;;4.83;2.52;;;;;;;11.80;29.29;99530.30;1692694;83;21069;-57
2021/03/24 08:51:46;;;;;;;6.35;3.00;;;;;;;12.04;29.26;99525.64;1704910;83;21199;-59
2021/03/24 08:54:53;;;;;;;4.17;2.72;;;;;;;12.26;28.25;99526.61;1695165;82;21933;-58
2021/03/24 08:57:59;;;;;;;;;;;;;;;12.14;28.40;99524.05;1732270;81;21207;-56
2021/03/24 09:00:57;;;;;;;2.62;2.00;;;;;;;11.96;27.81;99522.20;1689086;83;20241;-56
2021/03/24 09:03:52;;;;;;;1.60;1.45;;;;;;;11.80;27.88;99527.14;1720666;82;21026;-60
2021/03/24 09:06:41;;;;;;;;;;;;;;;12.01;26.84;99513.16;1744368;82;21089;-58
2021/03/24 09:09:45;;;;;;;3.05;1.77;;;;;;;12.13;26.33;99503.72;1707430;83;20244;-60
2021/03/24 09:12:28;;;;;;;5.33;1.90;;;;;;;12.05;27.15;99505.11;1711653;82;21167;-56
2021/03/24 09:15:03;;;;;;;4.62;2.25;;;;;;;12.18;27.43;99506.67;1711412;82;21922;-57
2021/03/24 09:17:56;;;;;;;3.65;2.37;;;;;;;12.43;26.89;99508.63;1700540;83;21093;-58
2021/03/24 09:20:29;;;;;;;5.08;1.80;;;;;;;12.36;26.32;99506.67;1704822;81;20968;-58
2021/03/24 09:23:35;;;;;;;3.87;2.12;;;;;;;12.14;26.46;99507.55;1695181;83;20980;-58
2021/03/24 09:26:41;;;;;;;2.40;1.40;;;;;;;11.85;27.07;99508.77;1695817;83;20963;-57
2021/03/24 09:29:24;;;;;;;2.15;1.40;;;;;;;11.97;26.92;99506.50;1704913;82;21396;-57
2021/03/24 09:32:34;;;;;;;2.02;1.70;;;;;;;12.10;26.96;99502.23;1696300;82;20936;-57
2021/03/24 09:35:29;;;;;;;2.83;1.72;;;;;;;12.20;26.57;99494.81;1696425;83;20933;-58
2021/03/24 09:38:06;;;;;;;4.55;1.80;;;;;;;12.24;26.47;99497.46;1696266;81;21047;-58
2021/03/24 09:40:40;;;;;;;4.00;1.92;;;;;;;12.17;26.56;99499.70;1696447;82;21080;-56
2021/03/24 09:43:33;;;;;;;3.02;1.70;;;;;;;12.14;26.31;99496.89;1708076;83;20969;-57
2021/03/24 09:46:12;;;;;;;5.22;1.62;;;;;;;12.12;25.98;99501.55;1693394;83;21183;-56
2021/03/24 09:48:58;;;;;;;4.08;2.40;;;;;;;12.32;26.79;99493.89;1783758;78;21128;-58
2021/03/24 09:51:31;;;;;;;2.72;1.80;;;;;;;12.49;26.50;99496.71;1750819;79;20933;-58
2021/03/24 09:54:23;;;;;;;5.10;2.05;;;;;;;12.55;26.56;99496.48;1732626;82;21202;-57
2021/03/24 09:57:06;;;;;;;3.45;1.67;;;;;;;12.64;26.21;99490.91;1737260;80;20988;-58
2021/03/24 09:59:50;;;;;;;4.55;1.80;;;;;;;12.52;25.59;99488.34;1738926;80;20994;-56
2021/03/24 10:02:27;;;;;;;2.62;1.85;;;;;;;12.25;25.55;99482.30;1749104;80;20886;-57
2021/03/24 10:05:02;;;;;;;6.53;2.05;;;;;;;11.92;26.24;99477.72;1747515;80;21005;-57
2021/03/24 10:07:31;;;;;;;4.78;2.25;;;;;;;11.84;26.18;99480.95;1754991;80;21199;-57
2021/03/24 10:10:19;;;;;;;4.58;1.75;;;;;;;11.76;26.33;99479.17;1753330;80;21755;-57
2021/03/24 10:13:02;;;;;;;8.33;2.58;;;;;;;11.80;27.08;99472.99;1752303;79;20939;-57
2021/03/24 10:15:41;;;;;;;3.02;2.12;;;;;;;12.03;27.00;99475.97;1752033;79;21597;-57
2021/03/24 10:18:23;;;;;;;4.97;2.47;;;;;;;12.16;26.15;99472.20;1746252;80;21155;-57
2021/03/24 10:21:05;;;;;;;3.98;2.00;;;;;;;12.16;26.60;99473.53;1761384;79;21380;-57
2021/03/24 10:23:50;;;;;;;2.33;1.52;;;;;;;12.43;26.17;99476.61;1698141;80;21130;-56
2021/03/24 10:26:30;;;;;;;3.27;1.77;;;;;;;12.47;25.72;99470.72;1693215;83;21131;-56
2021/03/24 10:29:08;;;;;;;9.90;2.00;;;;;;;12.39;25.95;99470.30;1700602;81;21122;-57
2021/03/24 10:31:39;;;;;;;6.85;1.87;;;;;;;12.30;26.05;99465.23;1712316;80;21059;-56
2021/03/24 10:34:26;;;;;;;4.47;1.82;;;;;;;12.25;25.88;99459.09;1721002;80;21442;-57
2021/03/24 10:37:04;;;;;;;3.40;2.10;;;;;;;12.10;25.64;99459.57;1707258;80;20961;-55
2021/03/24 10:39:45;;;;;;;3.98;2.47;;;;;;;11.84;26.51;99471.62;1696539;83;21071;-56
2021/03/24 10:42:28;;;;;;;14.33;2.35;;;;;;;11.58;26.28;99475.44;1715570;80;21151;-57
2021/03/24 10:45:33;;;;;;;2.85;1.80;;;;;;;11.51;26.14;99475.83;1722058;82;20953;-57
2021/03/24 10:48:31;;;;;;;2.72;2.35;;;;;;;11.72;26.63;99480.05;1724462;82;21596;-57
2021/03/24 10:51:34;;;;;;;3.02;1.60;;;;;;;11.93;26.53;99469.23;1717611;82;21105;-57
2021/03/24 10:54:07;;;;;;;2.00;1.50;;;;;;;11.90;25.86;99472.25;1720379;82;21180;-57
2021/03/24 10:56:58;;;;;;;1.98;1.60;;;;;;;11.81;26.17;99474.67;1720960;82;21602;-56
2021/03/24 10:59:39;;;;;;;2.20;1.90;;;;;;;11.70;26.68;99471.91;1663217;82;21098;-60
2021/03/24 11:02:31;;;;;;;4.00;2.10;;;;;;;11.73;26.49;99471.56;1726960;82;22302;-57
2021/03/24 11:05:08;;;;;;;4.60;1.95;;;;;;;11.61;26.10;99465.77;1731764;82;21062;-60
2021/03/24 11:08:00;;;;;;;1.92;1.72;;;;;;;11.33;26.41;99472.61;1729870;82;21014;-59
2021/03/24 11:10:57;;;;;;;2.87;1.65;;;;;;;11.21;26.62;99469.19;1709555;83;21060;-57
2021/03/24 11:13:34;;;;;;;6.30;1.50;;;;;;;11.09;26.58;99472.23;1718527;83;21166;-58
2021/03/24 11:16:12;;;;;;;1.67;1.45;;;;;;;11.08;26.76;99482.54;1726687;82;21386;-58
2021/03/24 11:18:43;;;;;;;3.95;1.42;;;;;;;10.97;26.35;99470.97;1763548;80;21158;-58
2021/03/24 11:21:51;;;;;;;3.67;1.92;;;;;;;10.78;26.26;99463.38;1770602;80;21214;-53
2021/03/24 11:24:46;;;;;;;3.20;1.70;;;;;;;10.70;26.55;99467.39;1755412;80;21505;-59
2021/03/24 11:27:40;;;;;;;1.67;1.57;;;;;;;10.83;27.59;99462.36;1752738;80;21171;-60
2021/03/24 11:30:15;;;;;;;2.98;2.15;;;;;;;10.88;26.77;99452.52;1713746;83;21369;-58
2021/03/24 11:32:54;;;;;;;3.25;1.95;;;;;;;10.80;26.68;99448.56;1752463;80;21143;-58
2021/03/24 11:35:41;;;;;;;2.05;1.40;;;;;;;10.69;26.98;99444.44;1776762;80;20977;-55
2021/03/24 11:38:22;;;;;;;;;;;;;;;10.55;26.62;99447.83;1766698;80;21016;-58
2021/03/24 11:40:59;;;;;;;2.17;1.30;;;;;;;10.46;26.69;99448.83;1769973;79;20299;-58
2021/03/24 11:43:32;;;;;;;5.37;1.85;;;;;;;10.49;26.30;99446.67;1751653;80;21371;-59
2021/03/24 11:46:21;;;;;;;4.22;1.52;;;;;;;10.40;26.54;99447.68;1768308;80;21562;-59
2021/03/24 11:49:24;;;;;;;4.35;1.37;;;;;;;10.32;26.44;99449.05;1743167;79;21136;-58
2021/03/24 11:52:40;;;;;;;5.30;1.40;;;;;;;10.21;26.64;99444.08;1703141;84;21140;-57
2021/03/24 11:55:43;;;;;;;6.03;1.45;;;;;;;10.21;27.01;99448.07;1685052;82;21168;-58
2021/03/24 11:58:35;;;;;;;2.95;1.42;;;;;;;10.31;26.49;99447.88;1682697;84;21362;-56
2021/03/24 12:01:42;;;;;;;2.00;1.57;;;;;;;10.17;26.57;99453.87;1689916;84;21188;-58
2021/03/24 12:04:38;;;;;;;4.17;1.77;;;;;;;9.92;26.83;99459.69;1685745;82;21014;-57
2021/03/24 12:07:22;;;;;;;1.95;1.30;;;;;;;9.77;26.81;99447.58;1681137;84;21204;-59
2021/03/24 12:10:00;;;;;;;2.90;1.80;;;;;;;9.72;26.95;99449.91;1684472;82;21467;-57
2021/03/24 12:12:29;;;;;;;1.98;1.00;;;;;;;9.64;26.92;99444.58;1675672;84;21093;-56
2021/03/24 12:15:22;;;;;;;3.52;1.62;;;;;;;9.59;26.86;99451.38;1677994;84;21049;-59
2021/03/24 12:17:53;;;;;;;3.40;1.50;;;;;;;9.51;27.03;99444.73;1699546;83;21103;-57
2021/03/24 12:20:21;;;;;;;2.08;1.25;;;;;;;9.49;27.11;99438.76;1676927;82;21238;-56
2021/03/24 12:22:55;;;;;;;2.62;1.70;;;;;;;9.50;27.31;99443.89;1687398;83;20941;-57
2021/03/24 12:25:27;;;;;;;2.52;1.70;;;;;;;9.55;27.52;99442.90;1677994;81;21388;-57
2021/03/24 12:28:05;;;;;;;4.62;2.52;;;;;;;9.57;27.95;99440.90;1686189;83;21771;-57
2021/03/24 12:30:44;;;;;;;3.12;1.70;;;;;;;9.52;27.40;99443.71;1690212;83;21502;-57
2021/03/24 12:33:22;;;;;;;7.08;2.27;;;;;;;9.26;27.56;99442.52;1698900;83;20994;-58
2021/03/24 12:36:19;;;;;;;2.33;1.47;;;;;;;9.12;28.04;99440.02;1678099;84;21198;-57
2021/03/24 12:39:00;;;;;;;3.42;1.60;;;;;;;9.09;28.01;99434.19;1722451;81;21355;-60
2021/03/24 12:41:38;;;;;;;5.70;1.75;;;;;;;8.96;28.22;99432.49;1714467;81;21561;-57
2021/03/24 12:44:40;;;;;;;3.00;1.65;;;;;;;8.87;28.37;99426.31;1686312;84;21148;-58
2021/03/24 12:47:33;;;;;;;3.70;1.70;;;;;;;8.80;28.32;99432.42;1702586;81;21559;-58